sensor_id;sensor_type;location;lat;lon;timestamp;P1;durP1;ratioP1;P2;durP2;ratioP2
56122;SDS011;42426;46.104;19.656;2023-01-06T00:00:25;10.85;;;6.00;;
56122;SDS011;42426;46.104;19.656;2023-01-06T00:02:51;10.30;;;5.72;;
56122;SDS011;42426;46.104;19.656;2023-01-06T00:05:17;7.82;;;4.18;;
56122;SDS011;42426;46.104;19.656;2023-01-06T00:07:47;6.43;;;3.45;;
56122;SDS011;42426;46.104;19.656;2023-01-06T00:10:13;5.30;;;3.40;;
56122;SDS011;42426;46.104;19.656;2023-01-06T00:12:44;11.75;;;5.00;;
56122;SDS011;42426;46.104;19.656;2023-01-06T00:15:12;14.90;;;5.63;;
56122;SDS011;42426;46.104;19.656;2023-01-06T00:17:39;10.15;;;5.70;;
56122;SDS011;42426;46.104;19.656;2023-01-06T00:20:05;10.63;;;6.45;;
56122;SDS011;42426;46.104;19.656;2023-01-06T00:22:31;10.82;;;6.57;;
56122;SDS011;42426;46.104;19.656;2023-01-06T00:24:57;14.65;;;6.90;;
56122;SDS011;42426;46.104;19.656;2023-01-06T00:27:22;10.15;;;6.25;;
56122;SDS011;42426;46.104;19.656;2023-01-06T00:29:48;11.85;;;5.30;;
56122;SDS011;42426;46.104;19.656;2023-01-06T00:32:16;8.82;;;5.20;;
56122;SDS011;42426;46.104;19.656;2023-01-06T00:34:42;9.23;;;5.57;;
56122;SDS011;42426;46.104;19.656;2023-01-06T00:37:08;10.13;;;5.13;;
56122;SDS011;42426;46.104;19.656;2023-01-06T00:39:34;8.05;;;5.25;;
56122;SDS011;42426;46.104;19.656;2023-01-06T00:41:59;5.97;;;4.53;;
56122;SDS011;42426;46.104;19.656;2023-01-06T00:44:31;7.43;;;5.30;;
56122;SDS011;42426;46.104;19.656;2023-01-06T00:46:59;6.25;;;3.58;;
56122;SDS011;42426;46.104;19.656;2023-01-06T00:49:26;6.50;;;4.15;;
56122;SDS011;42426;46.104;19.656;2023-01-06T00:51:52;6.25;;;3.60;;
56122;SDS011;42426;46.104;19.656;2023-01-06T00:54:18;6.75;;;3.70;;
56122;SDS011;42426;46.104;19.656;2023-01-06T00:56:45;10.02;;;3.63;;
56122;SDS011;42426;46.104;19.656;2023-01-06T00:59:17;6.05;;;3.47;;
56122;SDS011;42426;46.104;19.656;2023-01-06T01:01:49;5.47;;;3.20;;
56122;SDS011;42426;46.104;19.656;2023-01-06T01:04:16;6.90;;;4.22;;
56122;SDS011;42426;46.104;19.656;2023-01-06T01:06:43;6.97;;;3.75;;
56122;SDS011;42426;46.104;19.656;2023-01-06T01:09:12;7.18;;;3.63;;
56122;SDS011;42426;46.104;19.656;2023-01-06T01:11:39;7.93;;;4.03;;
56122;SDS011;42426;46.104;19.656;2023-01-06T01:14:25;6.35;;;3.17;;
56122;SDS011;42426;46.104;19.656;2023-01-06T01:16:51;5.72;;;3.22;;
56122;SDS011;42426;46.104;19.656;2023-01-06T01:19:17;8.68;;;3.75;;
56122;SDS011;42426;46.104;19.656;2023-01-06T01:21:42;11.73;;;3.75;;
56122;SDS011;42426;46.104;19.656;2023-01-06T01:24:08;6.05;;;3.50;;
56122;SDS011;42426;46.104;19.656;2023-01-06T01:26:34;5.22;;;3.40;;
56122;SDS011;42426;46.104;19.656;2023-01-06T01:29:00;6.32;;;3.42;;
56122;SDS011;42426;46.104;19.656;2023-01-06T01:31:26;5.60;;;3.20;;
56122;SDS011;42426;46.104;19.656;2023-01-06T01:33:52;6.43;;;3.25;;
56122;SDS011;42426;46.104;19.656;2023-01-06T01:36:18;6.50;;;2.97;;
56122;SDS011;42426;46.104;19.656;2023-01-06T01:38:44;5.38;;;2.60;;
56122;SDS011;42426;46.104;19.656;2023-01-06T01:41:14;4.57;;;2.65;;
56122;SDS011;42426;46.104;19.656;2023-01-06T01:43:48;2.35;;;1.95;;
56122;SDS011;42426;46.104;19.656;2023-01-06T01:46:24;8.40;;;4.10;;
56122;SDS011;42426;46.104;19.656;2023-01-06T01:48:58;23.50;;;4.55;;
56122;SDS011;42426;46.104;19.656;2023-01-06T01:51:29;3.13;;;2.45;;
56122;SDS011;42426;46.104;19.656;2023-01-06T01:53:58;6.57;;;2.03;;
56122;SDS011;42426;46.104;19.656;2023-01-06T01:56:28;5.50;;;2.10;;
56122;SDS011;42426;46.104;19.656;2023-01-06T01:59:08;4.45;;;2.03;;
56122;SDS011;42426;46.104;19.656;2023-01-06T02:01:37;3.55;;;2.40;;
56122;SDS011;42426;46.104;19.656;2023-01-06T02:04:05;3.88;;;2.30;;
56122;SDS011;42426;46.104;19.656;2023-01-06T02:06:31;4.28;;;2.30;;
56122;SDS011;42426;46.104;19.656;2023-01-06T02:12:01;7.20;;;3.40;;
56122;SDS011;42426;46.104;19.656;2023-01-06T02:14:27;4.97;;;2.90;;
56122;SDS011;42426;46.104;19.656;2023-01-06T02:25:04;5.55;;;3.63;;
56122;SDS011;42426;46.104;19.656;2023-01-06T02:30:39;5.85;;;2.80;;
56122;SDS011;42426;46.104;19.656;2023-01-06T02:33:09;10.27;;;3.08;;
56122;SDS011;42426;46.104;19.656;2023-01-06T02:38:24;9.85;;;3.40;;
56122;SDS011;42426;46.104;19.656;2023-01-06T02:45:55;3.92;;;2.40;;
56122;SDS011;42426;46.104;19.656;2023-01-06T02:51:17;3.45;;;2.10;;
56122;SDS011;42426;46.104;19.656;2023-01-06T02:54:08;4.43;;;2.60;;
56122;SDS011;42426;46.104;19.656;2023-01-06T02:57:00;4.68;;;2.13;;
56122;SDS011;42426;46.104;19.656;2023-01-06T02:59:43;3.85;;;1.88;;
56122;SDS011;42426;46.104;19.656;2023-01-06T03:02:15;7.57;;;2.22;;
56122;SDS011;42426;46.104;19.656;2023-01-06T03:04:43;4.50;;;2.35;;
56122;SDS011;42426;46.104;19.656;2023-01-06T03:07:11;4.97;;;3.35;;
56122;SDS011;42426;46.104;19.656;2023-01-06T03:09:39;8.25;;;3.40;;
56122;SDS011;42426;46.104;19.656;2023-01-06T03:12:11;3.65;;;2.80;;
56122;SDS011;42426;46.104;19.656;2023-01-06T03:14:53;6.93;;;2.40;;
56122;SDS011;42426;46.104;19.656;2023-01-06T03:17:21;8.10;;;3.38;;
56122;SDS011;42426;46.104;19.656;2023-01-06T03:19:47;6.07;;;2.90;;
56122;SDS011;42426;46.104;19.656;2023-01-06T03:22:13;6.93;;;2.88;;
56122;SDS011;42426;46.104;19.656;2023-01-06T03:24:40;6.65;;;3.58;;
56122;SDS011;42426;46.104;19.656;2023-01-06T03:27:08;5.88;;;3.05;;
56122;SDS011;42426;46.104;19.656;2023-01-06T03:29:34;6.00;;;3.17;;
56122;SDS011;42426;46.104;19.656;2023-01-06T03:32:08;5.93;;;3.58;;
56122;SDS011;42426;46.104;19.656;2023-01-06T03:37:43;4.65;;;2.60;;
56122;SDS011;42426;46.104;19.656;2023-01-06T03:40:31;4.07;;;3.17;;
56122;SDS011;42426;46.104;19.656;2023-01-06T03:53:37;5.32;;;3.05;;
56122;SDS011;42426;46.104;19.656;2023-01-06T03:56:23;7.55;;;3.47;;
56122;SDS011;42426;46.104;19.656;2023-01-06T03:58:53;8.90;;;3.50;;
56122;SDS011;42426;46.104;19.656;2023-01-06T04:01:23;6.97;;;4.00;;
56122;SDS011;42426;46.104;19.656;2023-01-06T04:03:51;7.68;;;3.65;;
56122;SDS011;42426;46.104;19.656;2023-01-06T04:06:18;7.57;;;2.88;;
56122;SDS011;42426;46.104;19.656;2023-01-06T04:08:44;6.35;;;3.97;;
56122;SDS011;42426;46.104;19.656;2023-01-06T04:11:10;6.45;;;3.97;;
56122;SDS011;42426;46.104;19.656;2023-01-06T04:13:55;10.38;;;4.28;;
56122;SDS011;42426;46.104;19.656;2023-01-06T04:16:21;8.02;;;4.45;;
56122;SDS011;42426;46.104;19.656;2023-01-06T04:18:47;5.60;;;3.63;;
56122;SDS011;42426;46.104;19.656;2023-01-06T04:21:12;5.65;;;3.25;;
56122;SDS011;42426;46.104;19.656;2023-01-06T04:23:38;6.10;;;3.50;;
56122;SDS011;42426;46.104;19.656;2023-01-06T04:26:04;9.38;;;3.40;;
56122;SDS011;42426;46.104;19.656;2023-01-06T04:28:29;5.72;;;3.30;;
56122;SDS011;42426;46.104;19.656;2023-01-06T04:30:58;6.05;;;3.50;;
56122;SDS011;42426;46.104;19.656;2023-01-06T04:33:25;8.05;;;3.08;;
56122;SDS011;42426;46.104;19.656;2023-01-06T04:35:52;4.93;;;2.63;;
56122;SDS011;42426;46.104;19.656;2023-01-06T04:38:18;5.03;;;2.42;;
56122;SDS011;42426;46.104;19.656;2023-01-06T04:40:43;3.40;;;2.67;;
56122;SDS011;42426;46.104;19.656;2023-01-06T04:43:09;6.50;;;2.83;;
56122;SDS011;42426;46.104;19.656;2023-01-06T04:45:40;8.40;;;3.35;;
56122;SDS011;42426;46.104;19.656;2023-01-06T04:48:07;6.63;;;3.10;;
56122;SDS011;42426;46.104;19.656;2023-01-06T04:50:34;6.47;;;2.53;;
56122;SDS011;42426;46.104;19.656;2023-01-06T04:53:00;4.95;;;2.80;;
56122;SDS011;42426;46.104;19.656;2023-01-06T04:55:26;5.30;;;2.90;;
56122;SDS011;42426;46.104;19.656;2023-01-06T04:57:52;10.05;;;3.33;;
56122;SDS011;42426;46.104;19.656;2023-01-06T05:00:17;4.45;;;2.88;;
56122;SDS011;42426;46.104;19.656;2023-01-06T05:02:44;4.85;;;2.63;;
56122;SDS011;42426;46.104;19.656;2023-01-06T05:05:10;5.75;;;2.88;;
56122;SDS011;42426;46.104;19.656;2023-01-06T05:07:36;4.32;;;2.75;;
56122;SDS011;42426;46.104;19.656;2023-01-06T05:10:02;4.10;;;2.60;;
56122;SDS011;42426;46.104;19.656;2023-01-06T05:12:29;5.85;;;3.13;;
56122;SDS011;42426;46.104;19.656;2023-01-06T05:14:57;10.68;;;3.78;;
56122;SDS011;42426;46.104;19.656;2023-01-06T05:17:23;8.50;;;3.33;;
56122;SDS011;42426;46.104;19.656;2023-01-06T05:19:49;5.90;;;3.28;;
56122;SDS011;42426;46.104;19.656;2023-01-06T05:22:15;9.27;;;3.60;;
56122;SDS011;42426;46.104;19.656;2023-01-06T05:24:41;9.98;;;3.53;;
56122;SDS011;42426;46.104;19.656;2023-01-06T05:27:07;4.93;;;3.00;;
56122;SDS011;42426;46.104;19.656;2023-01-06T05:29:33;9.00;;;3.95;;
56122;SDS011;42426;46.104;19.656;2023-01-06T05:31:59;6.93;;;4.63;;
56122;SDS011;42426;46.104;19.656;2023-01-06T05:34:25;6.97;;;3.42;;
56122;SDS011;42426;46.104;19.656;2023-01-06T05:36:51;7.40;;;2.97;;
56122;SDS011;42426;46.104;19.656;2023-01-06T05:39:17;5.45;;;3.20;;
56122;SDS011;42426;46.104;19.656;2023-01-06T05:41:43;10.07;;;4.85;;
56122;SDS011;42426;46.104;19.656;2023-01-06T05:44:08;7.40;;;3.20;;
56122;SDS011;42426;46.104;19.656;2023-01-06T05:46:34;7.03;;;3.25;;
56122;SDS011;42426;46.104;19.656;2023-01-06T05:49:01;7.57;;;4.50;;
56122;SDS011;42426;46.104;19.656;2023-01-06T05:51:27;5.13;;;2.95;;
56122;SDS011;42426;46.104;19.656;2023-01-06T05:53:55;7.00;;;3.75;;
56122;SDS011;42426;46.104;19.656;2023-01-06T05:56:21;7.60;;;4.05;;
56122;SDS011;42426;46.104;19.656;2023-01-06T05:58:48;8.88;;;4.78;;
56122;SDS011;42426;46.104;19.656;2023-01-06T06:01:20;9.00;;;5.53;;
56122;SDS011;42426;46.104;19.656;2023-01-06T06:03:50;10.48;;;5.53;;
56122;SDS011;42426;46.104;19.656;2023-01-06T06:06:18;8.88;;;5.80;;
56122;SDS011;42426;46.104;19.656;2023-01-06T06:08:45;9.90;;;5.63;;
56122;SDS011;42426;46.104;19.656;2023-01-06T06:11:12;8.55;;;4.75;;
56122;SDS011;42426;46.104;19.656;2023-01-06T06:13:46;10.43;;;3.90;;
56122;SDS011;42426;46.104;19.656;2023-01-06T06:16:14;8.82;;;4.45;;
56122;SDS011;42426;46.104;19.656;2023-01-06T06:18:41;8.20;;;3.92;;
56122;SDS011;42426;46.104;19.656;2023-01-06T06:21:12;7.43;;;3.60;;
56122;SDS011;42426;46.104;19.656;2023-01-06T06:23:39;7.68;;;4.05;;
56122;SDS011;42426;46.104;19.656;2023-01-06T06:26:06;7.78;;;3.70;;
56122;SDS011;42426;46.104;19.656;2023-01-06T06:28:33;11.70;;;4.93;;
56122;SDS011;42426;46.104;19.656;2023-01-06T06:31:06;13.20;;;6.63;;
56122;SDS011;42426;46.104;19.656;2023-01-06T06:33:37;13.50;;;6.82;;
56122;SDS011;42426;46.104;19.656;2023-01-06T06:36:04;12.70;;;6.00;;
56122;SDS011;42426;46.104;19.656;2023-01-06T06:38:31;12.10;;;6.57;;
56122;SDS011;42426;46.104;19.656;2023-01-06T06:40:56;15.18;;;8.27;;
56122;SDS011;42426;46.104;19.656;2023-01-06T06:43:22;27.83;;;9.80;;
56122;SDS011;42426;46.104;19.656;2023-01-06T06:45:48;22.27;;;10.30;;
56122;SDS011;42426;46.104;19.656;2023-01-06T06:48:14;15.88;;;8.50;;
56122;SDS011;42426;46.104;19.656;2023-01-06T06:50:41;33.63;;;15.05;;
56122;SDS011;42426;46.104;19.656;2023-01-06T06:53:06;28.92;;;14.85;;
56122;SDS011;42426;46.104;19.656;2023-01-06T06:55:34;23.98;;;10.68;;
56122;SDS011;42426;46.104;19.656;2023-01-06T06:57:59;15.05;;;7.35;;
56122;SDS011;42426;46.104;19.656;2023-01-06T07:00:25;10.55;;;6.30;;
56122;SDS011;42426;46.104;19.656;2023-01-06T07:02:51;14.63;;;6.20;;
56122;SDS011;42426;46.104;19.656;2023-01-06T07:05:16;13.52;;;7.22;;
56122;SDS011;42426;46.104;19.656;2023-01-06T07:07:43;19.17;;;9.30;;
56122;SDS011;42426;46.104;19.656;2023-01-06T07:10:12;16.25;;;9.60;;
56122;SDS011;42426;46.104;19.656;2023-01-06T07:12:40;23.13;;;12.57;;
56122;SDS011;42426;46.104;19.656;2023-01-06T07:15:06;22.98;;;12.30;;
56122;SDS011;42426;46.104;19.656;2023-01-06T07:17:32;33.80;;;16.45;;
56122;SDS011;42426;46.104;19.656;2023-01-06T07:19:59;43.75;;;20.58;;
56122;SDS011;42426;46.104;19.656;2023-01-06T07:22:24;41.25;;;20.65;;
56122;SDS011;42426;46.104;19.656;2023-01-06T07:24:50;36.67;;;21.05;;
56122;SDS011;42426;46.104;19.656;2023-01-06T07:27:16;39.30;;;19.63;;
56122;SDS011;42426;46.104;19.656;2023-01-06T07:29:41;39.17;;;18.38;;
56122;SDS011;42426;46.104;19.656;2023-01-06T07:32:07;27.55;;;16.20;;
56122;SDS011;42426;46.104;19.656;2023-01-06T07:34:33;20.90;;;10.77;;
56122;SDS011;42426;46.104;19.656;2023-01-06T07:36:59;18.02;;;8.70;;
56122;SDS011;42426;46.104;19.656;2023-01-06T07:39:25;15.45;;;9.45;;
56122;SDS011;42426;46.104;19.656;2023-01-06T07:41:51;18.88;;;8.75;;
56122;SDS011;42426;46.104;19.656;2023-01-06T07:44:16;29.83;;;12.45;;
56122;SDS011;42426;46.104;19.656;2023-01-06T07:46:42;20.88;;;12.38;;
56122;SDS011;42426;46.104;19.656;2023-01-06T07:49:07;24.17;;;12.82;;
56122;SDS011;42426;46.104;19.656;2023-01-06T07:51:33;23.08;;;12.18;;
56122;SDS011;42426;46.104;19.656;2023-01-06T07:53:59;25.95;;;10.88;;
56122;SDS011;42426;46.104;19.656;2023-01-06T07:56:25;21.15;;;11.50;;
56122;SDS011;42426;46.104;19.656;2023-01-06T07:58:51;16.67;;;11.43;;
56122;SDS011;42426;46.104;19.656;2023-01-06T08:01:18;33.95;;;16.70;;
56122;SDS011;42426;46.104;19.656;2023-01-06T08:03:44;34.33;;;15.55;;
56122;SDS011;42426;46.104;19.656;2023-01-06T08:06:10;22.88;;;11.93;;
56122;SDS011;42426;46.104;19.656;2023-01-06T08:08:37;21.58;;;11.05;;
56122;SDS011;42426;46.104;19.656;2023-01-06T08:11:05;23.52;;;16.33;;
56122;SDS011;42426;46.104;19.656;2023-01-06T08:13:31;20.67;;;11.40;;
56122;SDS011;42426;46.104;19.656;2023-01-06T08:15:58;18.10;;;9.77;;
56122;SDS011;42426;46.104;19.656;2023-01-06T08:18:28;20.65;;;10.30;;
56122;SDS011;42426;46.104;19.656;2023-01-06T08:20:58;14.50;;;7.80;;
56122;SDS011;42426;46.104;19.656;2023-01-06T08:26:04;17.23;;;9.40;;
56122;SDS011;42426;46.104;19.656;2023-01-06T08:28:30;14.50;;;7.60;;
56122;SDS011;42426;46.104;19.656;2023-01-06T08:30:57;12.95;;;7.47;;
56122;SDS011;42426;46.104;19.656;2023-01-06T08:33:23;14.90;;;6.38;;
56122;SDS011;42426;46.104;19.656;2023-01-06T08:35:51;14.90;;;7.85;;
56122;SDS011;42426;46.104;19.656;2023-01-06T08:38:28;23.25;;;9.60;;
56122;SDS011;42426;46.104;19.656;2023-01-06T08:40:56;19.88;;;10.40;;
56122;SDS011;42426;46.104;19.656;2023-01-06T08:43:23;19.83;;;10.15;;
56122;SDS011;42426;46.104;19.656;2023-01-06T08:45:49;14.55;;;7.90;;
56122;SDS011;42426;46.104;19.656;2023-01-06T08:48:16;12.27;;;7.15;;
56122;SDS011;42426;46.104;19.656;2023-01-06T08:50:42;19.13;;;9.23;;
56122;SDS011;42426;46.104;19.656;2023-01-06T08:53:08;19.38;;;10.55;;
56122;SDS011;42426;46.104;19.656;2023-01-06T08:55:37;12.90;;;7.28;;
56122;SDS011;42426;46.104;19.656;2023-01-06T08:58:03;14.68;;;8.18;;
56122;SDS011;42426;46.104;19.656;2023-01-06T09:00:31;18.75;;;7.28;;
56122;SDS011;42426;46.104;19.656;2023-01-06T09:02:58;17.05;;;6.60;;
56122;SDS011;42426;46.104;19.656;2023-01-06T09:05:25;9.65;;;6.00;;
56122;SDS011;42426;46.104;19.656;2023-01-06T09:07:51;10.65;;;5.20;;
56122;SDS011;42426;46.104;19.656;2023-01-06T09:10:18;14.90;;;7.15;;
56122;SDS011;42426;46.104;19.656;2023-01-06T09:12:44;14.35;;;7.15;;
56122;SDS011;42426;46.104;19.656;2023-01-06T09:15:11;11.25;;;6.25;;
56122;SDS011;42426;46.104;19.656;2023-01-06T09:17:37;11.63;;;7.53;;
56122;SDS011;42426;46.104;19.656;2023-01-06T09:20:03;9.73;;;7.55;;
56122;SDS011;42426;46.104;19.656;2023-01-06T09:22:30;11.57;;;8.88;;
56122;SDS011;42426;46.104;19.656;2023-01-06T09:24:56;14.65;;;8.00;;
56122;SDS011;42426;46.104;19.656;2023-01-06T09:27:22;14.35;;;8.18;;
56122;SDS011;42426;46.104;19.656;2023-01-06T09:29:48;17.20;;;8.93;;
56122;SDS011;42426;46.104;19.656;2023-01-06T09:32:15;13.65;;;7.95;;
56122;SDS011;42426;46.104;19.656;2023-01-06T09:34:42;13.68;;;7.07;;
56122;SDS011;42426;46.104;19.656;2023-01-06T09:37:08;13.57;;;9.02;;
56122;SDS011;42426;46.104;19.656;2023-01-06T09:39:34;10.20;;;5.78;;
56122;SDS011;42426;46.104;19.656;2023-01-06T09:44:30;15.70;;;7.65;;
56122;SDS011;42426;46.104;19.656;2023-01-06T09:47:00;13.23;;;7.35;;
56122;SDS011;42426;46.104;19.656;2023-01-06T09:52:11;8.75;;;5.47;;
56122;SDS011;42426;46.104;19.656;2023-01-06T09:55:14;10.57;;;5.75;;
56122;SDS011;42426;46.104;19.656;2023-01-06T09:57:55;12.75;;;6.68;;
56122;SDS011;42426;46.104;19.656;2023-01-06T10:03:13;11.40;;;6.25;;
56122;SDS011;42426;46.104;19.656;2023-01-06T10:09:27;13.63;;;6.13;;
56122;SDS011;42426;46.104;19.656;2023-01-06T10:22:26;13.52;;;6.38;;
56122;SDS011;42426;46.104;19.656;2023-01-06T10:25:05;12.95;;;5.03;;
56122;SDS011;42426;46.104;19.656;2023-01-06T10:30:33;11.57;;;6.05;;
56122;SDS011;42426;46.104;19.656;2023-01-06T10:33:03;11.73;;;7.13;;
56122;SDS011;42426;46.104;19.656;2023-01-06T10:35:29;9.30;;;5.25;;
56122;SDS011;42426;46.104;19.656;2023-01-06T10:37:57;11.65;;;6.15;;
56122;SDS011;42426;46.104;19.656;2023-01-06T10:40:28;11.25;;;6.13;;
56122;SDS011;42426;46.104;19.656;2023-01-06T10:43:02;9.68;;;6.38;;
56122;SDS011;42426;46.104;19.656;2023-01-06T10:45:38;11.55;;;6.05;;
56122;SDS011;42426;46.104;19.656;2023-01-06T10:48:04;10.60;;;5.18;;
56122;SDS011;42426;46.104;19.656;2023-01-06T10:50:36;8.70;;;4.68;;
56122;SDS011;42426;46.104;19.656;2023-01-06T10:53:02;11.32;;;5.18;;
56122;SDS011;42426;46.104;19.656;2023-01-06T10:58:23;13.98;;;6.65;;
56122;SDS011;42426;46.104;19.656;2023-01-06T11:03:34;11.00;;;6.57;;
56122;SDS011;42426;46.104;19.656;2023-01-06T11:06:05;17.92;;;7.82;;
56122;SDS011;42426;46.104;19.656;2023-01-06T11:08:34;14.55;;;7.80;;
56122;SDS011;42426;46.104;19.656;2023-01-06T11:11:01;13.00;;;7.00;;
56122;SDS011;42426;46.104;19.656;2023-01-06T11:13:34;11.25;;;7.05;;
56122;SDS011;42426;46.104;19.656;2023-01-06T11:16:02;9.32;;;6.18;;
56122;SDS011;42426;46.104;19.656;2023-01-06T11:18:30;11.65;;;6.38;;
56122;SDS011;42426;46.104;19.656;2023-01-06T11:21:02;9.85;;;5.90;;
56122;SDS011;42426;46.104;19.656;2023-01-06T11:23:30;11.73;;;7.65;;
56122;SDS011;42426;46.104;19.656;2023-01-06T11:28:38;13.27;;;7.63;;
56122;SDS011;42426;46.104;19.656;2023-01-06T11:36:20;9.95;;;5.78;;
56122;SDS011;42426;46.104;19.656;2023-01-06T11:38:53;8.18;;;4.88;;
56122;SDS011;42426;46.104;19.656;2023-01-06T11:41:30;7.75;;;5.07;;
56122;SDS011;42426;46.104;19.656;2023-01-06T11:44:07;13.93;;;7.28;;
56122;SDS011;42426;46.104;19.656;2023-01-06T11:46:46;11.85;;;6.93;;
56122;SDS011;42426;46.104;19.656;2023-01-06T11:49:18;10.40;;;6.43;;
56122;SDS011;42426;46.104;19.656;2023-01-06T11:51:51;9.43;;;4.22;;
56122;SDS011;42426;46.104;19.656;2023-01-06T11:54:30;8.88;;;5.10;;
56122;SDS011;42426;46.104;19.656;2023-01-06T11:57:02;9.80;;;5.88;;
56122;SDS011;42426;46.104;19.656;2023-01-06T12:02:24;7.18;;;4.35;;
56122;SDS011;42426;46.104;19.656;2023-01-06T12:05:16;15.38;;;7.53;;
56122;SDS011;42426;46.104;19.656;2023-01-06T12:07:53;10.65;;;5.90;;
56122;SDS011;42426;46.104;19.656;2023-01-06T12:10:27;9.68;;;5.32;;
56122;SDS011;42426;46.104;19.656;2023-01-06T12:12:57;7.68;;;5.15;;
56122;SDS011;42426;46.104;19.656;2023-01-06T12:15:23;11.57;;;6.55;;
56122;SDS011;42426;46.104;19.656;2023-01-06T12:17:53;16.17;;;9.88;;
56122;SDS011;42426;46.104;19.656;2023-01-06T12:20:26;16.13;;;11.68;;
56122;SDS011;42426;46.104;19.656;2023-01-06T12:22:56;18.75;;;9.95;;
56122;SDS011;42426;46.104;19.656;2023-01-06T12:25:28;7.65;;;5.45;;
56122;SDS011;42426;46.104;19.656;2023-01-06T12:30:39;8.70;;;5.53;;
56122;SDS011;42426;46.104;19.656;2023-01-06T12:36:17;11.40;;;6.13;;
56122;SDS011;42426;46.104;19.656;2023-01-06T12:38:53;8.25;;;5.97;;
56122;SDS011;42426;46.104;19.656;2023-01-06T12:44:11;11.40;;;6.93;;
56122;SDS011;42426;46.104;19.656;2023-01-06T12:47:00;11.48;;;6.25;;
56122;SDS011;42426;46.104;19.656;2023-01-06T12:52:21;12.30;;;5.72;;
56122;SDS011;42426;46.104;19.656;2023-01-06T12:54:52;9.73;;;4.43;;
56122;SDS011;42426;46.104;19.656;2023-01-06T13:00:24;12.45;;;5.72;;
56122;SDS011;42426;46.104;19.656;2023-01-06T13:10:52;8.82;;;5.00;;
56122;SDS011;42426;46.104;19.656;2023-01-06T13:13:42;10.45;;;6.35;;
56122;SDS011;42426;46.104;19.656;2023-01-06T13:16:42;10.43;;;5.15;;
56122;SDS011;42426;46.104;19.656;2023-01-06T13:22:11;7.57;;;4.57;;
56122;SDS011;42426;46.104;19.656;2023-01-06T13:24:48;10.00;;;6.15;;
56122;SDS011;42426;46.104;19.656;2023-01-06T13:30:25;17.42;;;9.73;;
56122;SDS011;42426;46.104;19.656;2023-01-06T13:33:18;20.30;;;8.85;;
56122;SDS011;42426;46.104;19.656;2023-01-06T13:41:19;6.90;;;4.55;;
56122;SDS011;42426;46.104;19.656;2023-01-06T13:43:51;8.85;;;5.72;;
56122;SDS011;42426;46.104;19.656;2023-01-06T13:46:19;11.00;;;6.30;;
56122;SDS011;42426;46.104;19.656;2023-01-06T13:48:48;12.00;;;7.25;;
56122;SDS011;42426;46.104;19.656;2023-01-06T13:51:18;17.35;;;12.80;;
56122;SDS011;42426;46.104;19.656;2023-01-06T13:53:47;17.55;;;9.32;;
56122;SDS011;42426;46.104;19.656;2023-01-06T13:58:40;36.22;;;23.35;;
56122;SDS011;42426;46.104;19.656;2023-01-06T14:06:52;23.23;;;13.05;;
56122;SDS011;42426;46.104;19.656;2023-01-06T14:09:18;39.65;;;22.27;;
56122;SDS011;42426;46.104;19.656;2023-01-06T14:11:45;44.28;;;24.55;;
56122;SDS011;42426;46.104;19.656;2023-01-06T14:14:27;58.75;;;34.90;;
56122;SDS011;42426;46.104;19.656;2023-01-06T14:17:02;45.90;;;29.02;;
56122;SDS011;42426;46.104;19.656;2023-01-06T14:22:12;43.00;;;24.55;;
56122;SDS011;42426;46.104;19.656;2023-01-06T14:24:42;44.70;;;26.70;;
56122;SDS011;42426;46.104;19.656;2023-01-06T14:27:13;44.15;;;26.40;;
56122;SDS011;42426;46.104;19.656;2023-01-06T14:34:56;50.85;;;29.33;;
56122;SDS011;42426;46.104;19.656;2023-01-06T14:37:27;63.15;;;36.13;;
56122;SDS011;42426;46.104;19.656;2023-01-06T14:39:59;51.72;;;29.30;;
56122;SDS011;42426;46.104;19.656;2023-01-06T14:42:31;73.80;;;38.40;;
56122;SDS011;42426;46.104;19.656;2023-01-06T14:44:59;60.97;;;34.20;;
56122;SDS011;42426;46.104;19.656;2023-01-06T14:47:39;72.82;;;41.17;;
56122;SDS011;42426;46.104;19.656;2023-01-06T14:50:13;59.67;;;37.33;;
56122;SDS011;42426;46.104;19.656;2023-01-06T14:52:41;68.82;;;40.97;;
56122;SDS011;42426;46.104;19.656;2023-01-06T14:55:15;63.85;;;36.85;;
56122;SDS011;42426;46.104;19.656;2023-01-06T14:57:43;62.83;;;37.00;;
56122;SDS011;42426;46.104;19.656;2023-01-06T15:00:16;88.90;;;53.65;;
56122;SDS011;42426;46.104;19.656;2023-01-06T15:02:45;81.45;;;46.80;;
56122;SDS011;42426;46.104;19.656;2023-01-06T15:05:28;58.92;;;37.38;;
56122;SDS011;42426;46.104;19.656;2023-01-06T15:07:59;66.82;;;41.97;;
56122;SDS011;42426;46.104;19.656;2023-01-06T15:10:43;78.75;;;50.65;;
56122;SDS011;42426;46.104;19.656;2023-01-06T15:13:29;94.00;;;58.17;;
56122;SDS011;42426;46.104;19.656;2023-01-06T15:16:03;98.28;;;60.08;;
56122;SDS011;42426;46.104;19.656;2023-01-06T15:18:36;103.70;;;61.47;;
56122;SDS011;42426;46.104;19.656;2023-01-06T15:21:07;105.10;;;63.92;;
56122;SDS011;42426;46.104;19.656;2023-01-06T15:23:33;87.15;;;51.92;;
56122;SDS011;42426;46.104;19.656;2023-01-06T15:25:58;91.63;;;54.03;;
56122;SDS011;42426;46.104;19.656;2023-01-06T15:28:28;94.82;;;52.47;;
56122;SDS011;42426;46.104;19.656;2023-01-06T15:31:00;87.28;;;51.35;;
56122;SDS011;42426;46.104;19.656;2023-01-06T15:33:32;85.82;;;50.85;;
56122;SDS011;42426;46.104;19.656;2023-01-06T15:36:04;105.25;;;66.47;;
56122;SDS011;42426;46.104;19.656;2023-01-06T15:38:32;101.70;;;65.60;;
56122;SDS011;42426;46.104;19.656;2023-01-06T15:41:00;97.75;;;64.05;;
56122;SDS011;42426;46.104;19.656;2023-01-06T15:43:37;104.75;;;64.18;;
56122;SDS011;42426;46.104;19.656;2023-01-06T15:46:08;107.80;;;68.15;;
56122;SDS011;42426;46.104;19.656;2023-01-06T15:48:37;116.82;;;74.00;;
56122;SDS011;42426;46.104;19.656;2023-01-06T15:51:09;100.18;;;60.63;;
56122;SDS011;42426;46.104;19.656;2023-01-06T15:53:36;110.45;;;66.65;;
56122;SDS011;42426;46.104;19.656;2023-01-06T15:56:02;94.57;;;59.38;;
56122;SDS011;42426;46.104;19.656;2023-01-06T15:58:33;89.38;;;57.50;;
56122;SDS011;42426;46.104;19.656;2023-01-06T16:01:12;104.07;;;70.50;;
56122;SDS011;42426;46.104;19.656;2023-01-06T16:03:43;126.40;;;79.13;;
56122;SDS011;42426;46.104;19.656;2023-01-06T16:06:24;200.23;;;107.07;;
56122;SDS011;42426;46.104;19.656;2023-01-06T16:08:50;253.63;;;127.03;;
56122;SDS011;42426;46.104;19.656;2023-01-06T16:14:24;113.53;;;64.50;;
56122;SDS011;42426;46.104;19.656;2023-01-06T16:19:29;93.70;;;52.03;;
56122;SDS011;42426;46.104;19.656;2023-01-06T16:22:02;78.30;;;46.22;;
56122;SDS011;42426;46.104;19.656;2023-01-06T16:24:32;75.38;;;43.78;;
56122;SDS011;42426;46.104;19.656;2023-01-06T16:27:04;90.40;;;51.38;;
56122;SDS011;42426;46.104;19.656;2023-01-06T16:29:32;92.15;;;53.88;;
56122;SDS011;42426;46.104;19.656;2023-01-06T16:34:53;83.00;;;51.97;;
56122;SDS011;42426;46.104;19.656;2023-01-06T16:37:20;93.78;;;53.83;;
56122;SDS011;42426;46.104;19.656;2023-01-06T16:39:46;80.03;;;47.33;;
56122;SDS011;42426;46.104;19.656;2023-01-06T16:45:00;77.95;;;45.78;;
56122;SDS011;42426;46.104;19.656;2023-01-06T16:47:27;90.80;;;52.90;;
56122;SDS011;42426;46.104;19.656;2023-01-06T16:49:52;83.30;;;50.20;;
56122;SDS011;42426;46.104;19.656;2023-01-06T16:52:18;86.68;;;52.60;;
56122;SDS011;42426;46.104;19.656;2023-01-06T16:54:44;90.97;;;55.45;;
56122;SDS011;42426;46.104;19.656;2023-01-06T16:57:17;100.50;;;61.33;;
56122;SDS011;42426;46.104;19.656;2023-01-06T16:59:43;106.30;;;69.18;;